Hovedside
METAR-TAF:

METAR-TAF

Lufthavner :

Tahoua, Niger

breddegrad: 14-54N, lengdegrad: 005-15E, høyde over havet: 386 m

Gjeldene værobservasjon

Denne rapporten ble laget for 1 time og 9 minutter siden, klokken 15:00 UTC
Vind 7 kt fra Sørvest
Temperatur 36°C
Luftfuktighet 45%
Trykk 1012 hPa
Sikt 10 km eller mer
Spredte skyer i en høyde av 4000 ft

METAR: DRRT 171500Z 22007KT 9999 SCT040 36/22 Q1012

Tid: 17:09 (16:09 UTC)


TAF: fraværende

Værobservasjoner og værvarsel for over 4000 flyplasser (METAR- og TAF-rapporter).

Tilgjengelige stasjoner er representert av de røde og gule prikkene på kartet.

Hold musepekeren over prikken for å se navnet på stasjonen.

Klikk så for å se værobservasjoner og -varsler.

For å forandre kartet kan du klikke på den grønne knappen med svart kryss for å zoome inn, på den grønne knappen med strek for å zoome ut, eller på de grønne pilene for å se tilstøtende kart.


METAR-TAF: